createdAt,value
2017-05-02T00:00:33.788Z,0
2017-05-02T00:01:14.303Z,0
2017-05-02T00:01:54.805Z,0
2017-05-02T00:02:35.340Z,0
2017-05-02T00:03:15.852Z,0
2017-05-02T00:03:56.380Z,0
2017-05-02T00:04:36.907Z,0
2017-05-02T00:05:17.413Z,0
2017-05-02T00:05:57.914Z,0
2017-05-02T00:06:38.449Z,0
2017-05-02T00:07:18.955Z,0
2017-05-02T00:07:59.479Z,0
2017-05-02T00:08:40.007Z,0
2017-05-02T00:09:20.551Z,0
2017-05-02T00:10:01.082Z,0
2017-05-02T00:10:41.591Z,0
2017-05-02T00:11:22.115Z,0
2017-05-02T00:12:02.638Z,0
2017-05-02T00:12:43.162Z,0
2017-05-02T00:13:23.682Z,0
2017-05-02T00:14:04.215Z,0
2017-05-02T00:14:44.748Z,0
2017-05-02T00:15:25.242Z,0
2017-05-02T00:16:05.769Z,0
2017-05-02T00:16:46.305Z,0
2017-05-02T00:17:26.828Z,0
2017-05-02T00:18:07.355Z,0
2017-05-02T00:18:47.862Z,0
2017-05-02T00:19:28.390Z,0
2017-05-02T00:20:08.896Z,0
2017-05-02T00:20:49.419Z,0
2017-05-02T00:21:29.941Z,0
2017-05-02T00:22:10.449Z,0
2017-05-02T00:22:51.007Z,0
2017-05-02T00:23:31.523Z,0
2017-05-02T00:24:12.050Z,0
2017-05-02T00:24:52.587Z,0
2017-05-02T00:25:33.116Z,0
2017-05-02T00:26:13.628Z,0
2017-05-02T00:26:54.155Z,0
2017-05-02T00:27:34.653Z,0
2017-05-02T00:28:15.161Z,0
2017-05-02T00:28:55.691Z,0
2017-05-02T00:29:36.194Z,0
2017-05-02T00:30:16.721Z,0
2017-05-02T00:30:57.245Z,0
2017-05-02T00:31:37.761Z,0
2017-05-02T00:32:18.263Z,0
2017-05-02T00:32:58.791Z,0
2017-05-02T00:33:39.296Z,0
2017-05-02T00:34:19.820Z,0
2017-05-02T00:35:00.345Z,0
2017-05-02T00:35:40.853Z,0
2017-05-02T00:36:21.379Z,0
2017-05-02T00:37:01.892Z,0
2017-05-02T00:37:42.474Z,0
2017-05-02T00:38:22.998Z,0
2017-05-02T00:39:03.544Z,0
2017-05-02T00:39:44.052Z,0
2017-05-02T00:40:24.561Z,0
2017-05-02T00:41:05.064Z,0
2017-05-02T00:41:45.588Z,0
2017-05-02T00:42:26.121Z,0
2017-05-02T00:43:06.653Z,0
2017-05-02T00:43:47.196Z,0
2017-05-02T00:44:27.701Z,0
2017-05-02T00:45:08.220Z,0
2017-05-02T00:45:48.746Z,0
2017-05-02T00:46:29.272Z,0
2017-05-02T00:47:09.793Z,0
2017-05-02T00:47:50.320Z,0
2017-05-02T00:48:30.852Z,0
2017-05-02T00:49:11.350Z,0
2017-05-02T00:49:51.879Z,0
2017-05-02T00:50:32.400Z,0
2017-05-02T00:51:12.923Z,0
2017-05-02T00:51:53.436Z,0
2017-05-02T00:52:33.955Z,0
2017-05-02T00:53:14.467Z,0
2017-05-02T00:53:54.987Z,0
2017-05-02T00:54:35.510Z,0
2017-05-02T00:55:16.035Z,0
2017-05-02T00:55:56.536Z,0
2017-05-02T00:56:37.056Z,0
2017-05-02T00:57:17.599Z,0
2017-05-02T00:57:58.124Z,0
2017-05-02T00:58:38.659Z,0
2017-05-02T00:59:19.240Z,0
2017-05-02T00:59:59.776Z,0
2017-05-02T01:00:40.293Z,0
2017-05-02T01:01:20.808Z,0
2017-05-02T01:02:01.350Z,0
2017-05-02T01:02:41.874Z,0
2017-05-02T01:03:22.397Z,0
2017-05-02T01:04:02.930Z,0
2017-05-02T01:04:43.464Z,0
2017-05-02T01:05:23.968Z,0
2017-05-02T01:06:04.495Z,0
2017-05-02T01:06:45.024Z,0
2017-05-02T01:07:25.553Z,0
2017-05-02T01:08:06.062Z,0
2017-05-02T01:08:46.582Z,0
2017-05-02T01:09:27.098Z,0
2017-05-02T01:10:07.604Z,0
2017-05-02T01:10:48.111Z,0
2017-05-02T01:11:28.617Z,0
2017-05-02T01:12:09.156Z,0
2017-05-02T01:12:49.695Z,0
2017-05-02T01:13:30.222Z,0
2017-05-02T01:14:10.716Z,0
2017-05-02T01:14:51.250Z,0
2017-05-02T01:15:31.779Z,0
2017-05-02T01:16:12.306Z,0
2017-05-02T01:16:52.818Z,0
2017-05-02T01:17:33.331Z,0
2017-05-02T01:18:13.868Z,0
2017-05-02T01:18:54.408Z,0
2017-05-02T01:19:34.940Z,0
2017-05-02T01:20:15.457Z,0
2017-05-02T01:20:55.979Z,0
2017-05-02T01:21:36.510Z,0
2017-05-02T01:22:17.038Z,0
2017-05-02T01:22:57.564Z,0
2017-05-02T01:23:38.090Z,0
2017-05-02T01:24:18.609Z,0
2017-05-02T01:24:59.133Z,0
2017-05-02T01:25:39.645Z,0
2017-05-02T01:26:20.181Z,0
2017-05-02T01:27:00.727Z,0
2017-05-02T01:27:41.266Z,0
2017-05-02T01:28:21.767Z,0
2017-05-02T01:29:02.291Z,0
2017-05-02T01:29:42.833Z,0
2017-05-02T01:30:23.363Z,0
2017-05-02T01:31:03.891Z,0
2017-05-02T01:31:44.415Z,0
2017-05-02T01:32:24.933Z,0
2017-05-02T01:33:05.466Z,0
2017-05-02T01:33:46.016Z,0
2017-05-02T01:34:26.519Z,0
2017-05-02T01:35:07.044Z,0
2017-05-02T01:35:47.598Z,0
2017-05-02T01:36:28.113Z,0
2017-05-02T01:37:08.632Z,0
2017-05-02T01:37:49.154Z,0
2017-05-02T01:38:29.668Z,0
2017-05-02T01:39:10.179Z,0
2017-05-02T01:39:50.702Z,0
2017-05-02T01:40:31.190Z,0
2017-05-02T01:41:11.708Z,0
2017-05-02T01:41:52.235Z,0
2017-05-02T01:42:32.770Z,0
2017-05-02T01:43:13.293Z,0
2017-05-02T01:43:53.797Z,0
2017-05-02T01:44:34.345Z,0
2017-05-02T01:45:14.867Z,0
2017-05-02T01:45:55.393Z,0
2017-05-02T01:46:35.918Z,0
2017-05-02T01:47:16.453Z,0
2017-05-02T01:47:56.971Z,0
2017-05-02T01:48:37.487Z,0
2017-05-02T01:49:18.044Z,0
2017-05-02T01:49:58.573Z,0
2017-05-02T01:50:39.098Z,0
2017-05-02T01:51:19.625Z,0
2017-05-02T01:52:00.156Z,0
2017-05-02T01:52:40.678Z,0
2017-05-02T01:53:21.189Z,0
2017-05-02T01:54:01.706Z,0
2017-05-02T01:54:42.219Z,0
2017-05-02T01:55:22.728Z,0
2017-05-02T01:56:03.269Z,0
2017-05-02T01:56:43.793Z,0
2017-05-02T01:57:24.310Z,0
2017-05-02T01:58:04.826Z,0
2017-05-02T01:58:45.358Z,0
2017-05-02T01:59:25.878Z,0
2017-05-02T02:00:06.385Z,0
2017-05-02T02:00:46.901Z,0
2017-05-02T02:01:27.411Z,0
2017-05-02T02:02:07.924Z,0
2017-05-02T02:02:48.459Z,0
2017-05-02T02:03:28.979Z,0
2017-05-02T02:04:09.492Z,0
2017-05-02T02:04:50.023Z,0
2017-05-02T02:05:30.561Z,0
2017-05-02T02:06:11.089Z,0
2017-05-02T02:06:51.627Z,0
2017-05-02T02:07:32.150Z,0
2017-05-02T02:08:12.680Z,0
2017-05-02T02:08:53.201Z,0
2017-05-02T02:09:33.761Z,0
2017-05-02T02:10:14.259Z,0
2017-05-02T02:10:54.788Z,0
2017-05-02T02:11:35.325Z,0
2017-05-02T02:12:15.847Z,0
2017-05-02T02:12:56.377Z,0
2017-05-02T02:13:36.910Z,0
2017-05-02T02:14:17.447Z,0
2017-05-02T02:14:57.972Z,0
2017-05-02T02:15:38.478Z,0
2017-05-02T02:16:19.009Z,0
2017-05-02T02:16:59.549Z,0
2017-05-02T02:17:40.082Z,0
2017-05-02T02:18:20.591Z,0
2017-05-02T02:19:01.118Z,0
2017-05-02T02:19:41.632Z,0
2017-05-02T02:20:22.160Z,0
2017-05-02T02:21:02.664Z,0
2017-05-02T02:21:43.184Z,0
2017-05-02T02:22:23.702Z,0
2017-05-02T02:23:04.224Z,0
2017-05-02T02:23:44.744Z,0
2017-05-02T02:24:25.282Z,0
2017-05-02T02:25:05.800Z,0
2017-05-02T02:25:46.306Z,0
2017-05-02T02:26:26.832Z,0
2017-05-02T02:27:07.341Z,0
2017-05-02T02:27:47.858Z,0
2017-05-02T02:28:28.396Z,0
2017-05-02T02:29:08.907Z,0
2017-05-02T02:29:49.426Z,0
2017-05-02T02:30:29.942Z,0
2017-05-02T02:31:10.472Z,0
2017-05-02T02:31:51.006Z,0
2017-05-02T02:32:31.518Z,0
2017-05-02T02:33:12.033Z,0
2017-05-02T02:33:52.554Z,0
2017-05-02T02:34:33.074Z,0
2017-05-02T02:35:13.600Z,0
2017-05-02T02:35:54.126Z,0
2017-05-02T02:36:34.664Z,0
2017-05-02T02:37:15.184Z,0
2017-05-02T02:37:55.690Z,0
2017-05-02T02:38:36.216Z,0
2017-05-02T02:39:16.745Z,0
2017-05-02T02:39:57.269Z,0
2017-05-02T02:40:37.785Z,0
2017-05-02T02:41:18.294Z,0
2017-05-02T02:41:58.812Z,0
2017-05-02T02:42:39.347Z,0
2017-05-02T02:43:19.864Z,0
2017-05-02T02:44:00.382Z,0
2017-05-02T02:44:41.106Z,0
2017-05-02T02:45:21.460Z,0
2017-05-02T02:46:01.999Z,0
2017-05-02T02:46:42.550Z,0
2017-05-02T02:47:23.092Z,0
2017-05-02T02:48:03.615Z,0
2017-05-02T02:48:44.138Z,0
2017-05-02T02:49:24.657Z,0
2017-05-02T02:50:05.189Z,0
2017-05-02T02:50:45.703Z,0
2017-05-02T02:51:26.234Z,0
2017-05-02T02:52:06.739Z,0
2017-05-02T02:52:47.241Z,0
2017-05-02T02:53:27.787Z,0
2017-05-02T02:54:08.311Z,0
2017-05-02T02:54:48.857Z,0
2017-05-02T02:55:29.367Z,0
2017-05-02T02:56:09.892Z,0
2017-05-02T02:56:50.417Z,0
2017-05-02T02:57:30.951Z,0
2017-05-02T02:58:11.493Z,0
2017-05-02T02:58:52.001Z,0
2017-05-02T02:59:32.532Z,0
2017-05-02T03:00:13.066Z,0
2017-05-02T03:00:53.595Z,0
2017-05-02T03:01:34.194Z,0
2017-05-02T03:02:14.720Z,0
2017-05-02T03:02:55.229Z,0
2017-05-02T03:03:35.746Z,0
2017-05-02T03:04:16.266Z,0
2017-05-02T03:04:56.783Z,0
2017-05-02T03:05:37.295Z,0
2017-05-02T03:06:17.830Z,0
2017-05-02T03:06:58.361Z,0
2017-05-02T03:07:38.884Z,0
2017-05-02T03:08:19.395Z,0
2017-05-02T03:08:59.926Z,0
2017-05-02T03:09:40.463Z,0
2017-05-02T03:10:20.982Z,0
2017-05-02T03:11:01.521Z,0
2017-05-02T03:11:42.049Z,0
2017-05-02T03:12:22.564Z,0
2017-05-02T03:13:03.086Z,0
2017-05-02T03:13:43.600Z,0
2017-05-02T03:14:24.127Z,0
2017-05-02T03:15:04.653Z,0
2017-05-02T03:15:45.182Z,0
2017-05-02T03:16:25.705Z,0
2017-05-02T03:17:06.227Z,0
2017-05-02T03:17:46.769Z,0
2017-05-02T03:18:27.276Z,0
2017-05-02T03:19:07.798Z,0
2017-05-02T03:19:48.307Z,0
2017-05-02T03:20:28.840Z,0
2017-05-02T03:21:09.358Z,0
2017-05-02T03:21:49.895Z,0
2017-05-02T03:22:30.428Z,0
2017-05-02T03:23:10.946Z,0
2017-05-02T03:23:51.472Z,0
2017-05-02T03:24:31.998Z,0
2017-05-02T03:25:12.531Z,0
2017-05-02T03:25:53.087Z,0
2017-05-02T03:26:33.637Z,0
2017-05-02T03:27:14.139Z,0
2017-05-02T03:27:54.672Z,0
2017-05-02T03:28:35.173Z,0
2017-05-02T03:29:15.701Z,0
2017-05-02T03:29:56.231Z,0
2017-05-02T03:30:36.738Z,0
2017-05-02T03:31:17.277Z,0
2017-05-02T03:31:57.788Z,0
2017-05-02T03:32:38.339Z,0
2017-05-02T03:33:18.877Z,0
2017-05-02T03:33:59.404Z,0
2017-05-02T03:34:39.940Z,0
2017-05-02T03:35:20.459Z,0
2017-05-02T03:36:00.974Z,0
2017-05-02T03:36:41.491Z,0
2017-05-02T03:37:22.010Z,0
2017-05-02T03:38:02.516Z,0
2017-05-02T03:38:43.032Z,0
2017-05-02T03:39:23.547Z,0
2017-05-02T03:40:04.059Z,0
2017-05-02T03:40:44.584Z,0
2017-05-02T03:41:25.123Z,0
2017-05-02T03:42:05.650Z,0
2017-05-02T03:42:46.149Z,0
2017-05-02T03:43:26.664Z,0
2017-05-02T03:44:07.175Z,0
2017-05-02T03:44:47.689Z,0
2017-05-02T03:45:28.196Z,0
2017-05-02T03:46:08.718Z,0
2017-05-02T03:46:49.232Z,0
2017-05-02T03:47:29.763Z,0
2017-05-02T03:48:10.278Z,0
2017-05-02T03:48:50.935Z,0
2017-05-02T03:49:31.516Z,0
2017-05-02T03:50:12.097Z,0
2017-05-02T03:50:52.610Z,0
2017-05-02T03:51:33.136Z,0
2017-05-02T03:52:13.650Z,0
2017-05-02T03:52:54.168Z,0
2017-05-02T03:53:34.696Z,0
2017-05-02T03:54:15.234Z,0
2017-05-02T03:54:55.787Z,0
2017-05-02T03:55:36.268Z,0
2017-05-02T03:56:16.798Z,0
2017-05-02T03:56:57.316Z,0
2017-05-02T03:57:37.846Z,0
2017-05-02T03:58:18.408Z,0
2017-05-02T03:58:58.949Z,0
2017-05-02T03:59:40.368Z,0
2017-05-02T04:00:20.890Z,0
2017-05-02T04:01:01.449Z,0
2017-05-02T04:01:41.971Z,0
2017-05-02T04:02:22.501Z,0
2017-05-02T04:03:03.024Z,0
2017-05-02T04:03:43.539Z,0
2017-05-02T04:04:24.081Z,0
2017-05-02T04:05:04.607Z,0
2017-05-02T04:05:45.357Z,0
2017-05-02T04:06:25.728Z,0
2017-05-02T04:07:06.251Z,0
2017-05-02T04:07:46.764Z,0
2017-05-02T04:08:27.271Z,0
2017-05-02T04:09:07.770Z,0
2017-05-02T04:09:48.280Z,0
2017-05-02T04:10:28.774Z,5
2017-05-02T04:11:09.283Z,5
2017-05-02T04:11:49.815Z,5
2017-05-02T04:12:30.326Z,5
2017-05-02T04:13:10.839Z,5
2017-05-02T04:13:51.373Z,5
2017-05-02T04:14:31.891Z,5
2017-05-02T04:15:12.394Z,5
2017-05-02T04:15:52.924Z,5
2017-05-02T04:16:33.406Z,5
2017-05-02T04:17:13.921Z,5
2017-05-02T04:17:54.442Z,5
2017-05-02T04:18:34.944Z,5
2017-05-02T04:19:16.039Z,5
2017-05-02T04:19:56.585Z,5
2017-05-02T04:20:37.119Z,5
2017-05-02T04:21:17.637Z,10
2017-05-02T04:21:58.139Z,10
2017-05-02T04:22:38.645Z,10
2017-05-02T04:23:19.184Z,10
2017-05-02T04:23:59.717Z,10
2017-05-02T04:24:40.238Z,10
2017-05-02T04:25:20.759Z,10
2017-05-02T04:26:01.279Z,10
2017-05-02T04:26:41.792Z,10
2017-05-02T04:27:22.312Z,15
2017-05-02T04:28:02.834Z,15
2017-05-02T04:28:43.355Z,15
2017-05-02T04:29:23.867Z,15
2017-05-02T04:30:04.386Z,15
2017-05-02T04:30:44.921Z,15
2017-05-02T04:31:25.440Z,15
2017-05-02T04:32:05.960Z,15
2017-05-02T04:32:46.460Z,15
2017-05-02T04:33:26.970Z,15
2017-05-02T04:34:07.487Z,20
2017-05-02T04:34:47.985Z,20
2017-05-02T04:35:28.533Z,20
2017-05-02T04:36:09.017Z,20
2017-05-02T04:36:49.517Z,20
2017-05-02T04:37:30.045Z,20
2017-05-02T04:38:10.566Z,20
2017-05-02T04:38:51.068Z,20
2017-05-02T04:39:31.607Z,20
2017-05-02T04:40:12.117Z,20
2017-05-02T04:40:52.604Z,20
2017-05-02T04:41:33.137Z,20
2017-05-02T04:42:13.640Z,25
2017-05-02T04:42:54.162Z,25
2017-05-02T04:43:34.678Z,25
2017-05-02T04:44:15.220Z,25
2017-05-02T04:44:55.738Z,25
2017-05-02T04:45:36.259Z,25
2017-05-02T04:46:16.766Z,25
2017-05-02T04:46:57.284Z,25
2017-05-02T04:47:37.806Z,25
2017-05-02T04:48:18.318Z,25
2017-05-02T04:48:58.841Z,25
2017-05-02T04:49:39.358Z,25
2017-05-02T04:50:19.877Z,25
2017-05-02T04:51:00.420Z,25
2017-05-02T04:51:40.955Z,25
2017-05-02T04:52:21.571Z,25
2017-05-02T04:53:02.026Z,25
2017-05-02T04:53:42.643Z,25
2017-05-02T04:54:23.083Z,25
2017-05-02T04:55:03.611Z,25
2017-05-02T04:55:44.148Z,25
2017-05-02T04:56:24.670Z,25
2017-05-02T04:57:05.182Z,30
2017-05-02T04:57:45.686Z,30
2017-05-02T04:58:26.214Z,30
2017-05-02T04:59:06.751Z,30
2017-05-02T04:59:47.291Z,30
2017-05-02T05:00:27.826Z,30
2017-05-02T05:01:08.344Z,30
2017-05-02T05:01:48.866Z,30
2017-05-02T05:02:29.395Z,30
2017-05-02T05:03:09.932Z,30
2017-05-02T05:03:50.474Z,30
2017-05-02T05:04:31.152Z,30
2017-05-02T05:05:11.680Z,30
2017-05-02T05:05:52.206Z,30
2017-05-02T05:06:32.726Z,25
2017-05-02T05:07:13.286Z,30
2017-05-02T05:07:53.791Z,30
2017-05-02T05:08:34.314Z,35
2017-05-02T05:09:14.835Z,35
2017-05-02T05:09:55.356Z,40
2017-05-02T05:10:35.887Z,45
2017-05-02T05:11:16.404Z,45
2017-05-02T05:11:56.920Z,50
2017-05-02T05:12:37.454Z,50
2017-05-02T05:13:17.984Z,55
2017-05-02T05:13:58.502Z,55
2017-05-02T05:14:39.028Z,60
2017-05-02T05:15:19.548Z,60
2017-05-02T05:16:00.073Z,60
2017-05-02T05:16:40.591Z,60
2017-05-02T05:17:21.132Z,55
2017-05-02T05:18:01.600Z,50
2017-05-02T05:18:42.117Z,50
2017-05-02T05:19:22.651Z,50
2017-05-02T05:20:03.163Z,45
2017-05-02T05:20:43.661Z,45
2017-05-02T05:21:24.169Z,50
2017-05-02T05:22:04.677Z,50
2017-05-02T05:22:45.212Z,50
2017-05-02T05:23:25.790Z,50
2017-05-02T05:24:06.260Z,45
2017-05-02T05:24:46.782Z,45
2017-05-02T05:25:27.319Z,40
2017-05-02T05:26:07.838Z,40
2017-05-02T05:26:48.366Z,35
2017-05-02T05:27:28.880Z,30
2017-05-02T05:28:09.425Z,30
2017-05-02T05:28:49.951Z,30
2017-05-02T05:29:30.492Z,30
2017-05-02T05:30:11.002Z,30
2017-05-02T05:30:51.513Z,35
2017-05-02T05:31:32.028Z,35
2017-05-02T05:32:12.540Z,35
2017-05-02T05:32:53.062Z,30
2017-05-02T05:33:33.587Z,30
2017-05-02T05:34:14.106Z,30
2017-05-02T05:34:54.691Z,30
2017-05-02T05:35:35.208Z,35
2017-05-02T05:36:15.741Z,35
2017-05-02T05:36:56.270Z,40
2017-05-02T05:37:36.805Z,40
2017-05-02T05:38:17.346Z,40
2017-05-02T05:38:57.840Z,40
2017-05-02T05:39:38.363Z,35
2017-05-02T05:40:18.878Z,40
2017-05-02T05:40:59.380Z,40
2017-05-02T05:41:39.902Z,40
2017-05-02T05:42:20.428Z,40
2017-05-02T05:43:00.961Z,40
2017-05-02T05:43:41.475Z,40
2017-05-02T05:44:22.016Z,40
2017-05-02T05:45:02.532Z,35
2017-05-02T05:45:43.071Z,35
2017-05-02T05:46:23.564Z,35
2017-05-02T05:47:04.061Z,35
2017-05-02T05:47:44.571Z,35
2017-05-02T05:48:25.091Z,35
2017-05-02T05:49:05.615Z,35
2017-05-02T05:49:46.138Z,35
2017-05-02T05:50:26.663Z,35
2017-05-02T05:51:07.181Z,35
2017-05-02T05:51:47.761Z,35
2017-05-02T05:52:28.309Z,35
2017-05-02T05:53:08.809Z,35
2017-05-02T05:53:49.532Z,35
2017-05-02T05:54:30.190Z,35
2017-05-02T05:55:10.744Z,35
2017-05-02T05:55:51.282Z,35
2017-05-02T05:56:31.836Z,40
2017-05-02T05:57:12.367Z,40
2017-05-02T05:57:52.889Z,40
2017-05-02T05:58:33.380Z,40
2017-05-02T05:59:13.898Z,40
2017-05-02T05:59:54.433Z,35
2017-05-02T06:00:34.953Z,35
2017-05-02T06:01:15.444Z,35
2017-05-02T06:01:55.968Z,35
2017-05-02T06:02:36.481Z,35
2017-05-02T06:03:17.031Z,35
2017-05-02T06:03:57.548Z,30
2017-05-02T06:04:38.073Z,30
2017-05-02T06:05:18.643Z,30
2017-05-02T06:05:59.195Z,25
2017-05-02T06:06:39.714Z,30
2017-05-02T06:07:20.249Z,35
2017-05-02T06:08:00.801Z,35
2017-05-02T06:08:41.319Z,35
2017-05-02T06:09:21.837Z,35
2017-05-02T06:10:02.366Z,40
2017-05-02T06:10:42.904Z,40
2017-05-02T06:11:23.429Z,40
2017-05-02T06:12:03.948Z,40
2017-05-02T06:12:44.467Z,40
2017-05-02T06:13:24.998Z,40
2017-05-02T06:14:05.541Z,40
2017-05-02T06:14:46.064Z,45
2017-05-02T06:15:26.585Z,40
2017-05-02T06:16:07.109Z,40
2017-05-02T06:16:47.644Z,40
2017-05-02T06:17:28.170Z,40
2017-05-02T06:18:08.683Z,40
2017-05-02T06:18:49.204Z,40
2017-05-02T06:19:29.723Z,40
2017-05-02T06:20:10.223Z,40
2017-05-02T06:20:50.745Z,35
2017-05-02T06:21:31.287Z,40
2017-05-02T06:22:11.801Z,40
2017-05-02T06:22:52.337Z,35
2017-05-02T06:23:32.857Z,35
2017-05-02T06:24:13.370Z,35
2017-05-02T06:24:53.891Z,40
2017-05-02T06:25:34.415Z,35
2017-05-02T06:26:14.918Z,35
2017-05-02T06:26:55.438Z,35
2017-05-02T06:27:35.955Z,35
2017-05-02T06:28:16.476Z,35
2017-05-02T06:28:56.994Z,35
2017-05-02T06:29:37.518Z,35
2017-05-02T06:30:18.039Z,35
2017-05-02T06:30:58.552Z,35
2017-05-02T06:31:39.067Z,35
2017-05-02T06:32:19.612Z,35
2017-05-02T06:33:00.140Z,35
2017-05-02T06:33:40.657Z,35
2017-05-02T06:34:21.172Z,35
2017-05-02T06:35:01.702Z,30
2017-05-02T06:35:42.228Z,30
2017-05-02T06:36:22.739Z,30
2017-05-02T06:37:03.261Z,30
2017-05-02T06:37:43.795Z,30
2017-05-02T06:38:24.300Z,30
2017-05-02T06:39:04.814Z,30
2017-05-02T06:39:45.347Z,30
2017-05-02T06:40:25.872Z,30
2017-05-02T06:41:06.366Z,30
2017-05-02T06:41:46.890Z,30
2017-05-02T06:42:27.416Z,30
2017-05-02T06:43:07.921Z,30
2017-05-02T06:43:48.440Z,30
2017-05-02T06:44:28.950Z,30
2017-05-02T06:45:09.482Z,35
2017-05-02T06:45:50.018Z,35
2017-05-02T06:46:30.547Z,30
2017-05-02T06:47:11.585Z,30
2017-05-02T06:47:52.168Z,25
2017-05-02T06:48:32.691Z,30
2017-05-02T06:49:13.236Z,30
2017-05-02T06:49:53.770Z,35
2017-05-02T06:50:34.314Z,35
2017-05-02T06:51:14.828Z,35
2017-05-02T06:51:55.342Z,35
2017-05-02T06:52:35.866Z,35
2017-05-02T06:53:16.389Z,30
2017-05-02T06:53:56.927Z,30
2017-05-02T06:54:37.414Z,30
2017-05-02T06:55:17.936Z,30
2017-05-02T06:55:58.453Z,30
2017-05-02T06:56:38.991Z,30
2017-05-02T06:57:19.512Z,30
2017-05-02T06:58:00.021Z,25
2017-05-02T06:58:40.570Z,25
2017-05-02T06:59:21.066Z,25
2017-05-02T07:00:01.595Z,25
2017-05-02T07:00:42.119Z,20
2017-05-02T07:01:22.645Z,20
2017-05-02T07:02:03.196Z,20
2017-05-02T07:02:43.705Z,20
2017-05-02T07:03:24.232Z,20
2017-05-02T07:04:04.745Z,25
2017-05-02T07:04:45.264Z,25
2017-05-02T07:05:25.772Z,25
2017-05-02T07:06:06.294Z,25
2017-05-02T07:06:46.813Z,30
2017-05-02T07:07:27.340Z,30
2017-05-02T07:08:07.864Z,30
2017-05-02T07:08:48.404Z,35
2017-05-02T07:09:28.918Z,35
2017-05-02T07:10:09.439Z,35
2017-05-02T07:10:49.970Z,35
2017-05-02T07:11:30.497Z,35
2017-05-02T07:12:11.015Z,40
2017-05-02T07:12:51.525Z,40
2017-05-02T07:13:32.046Z,45
2017-05-02T07:14:12.570Z,45
2017-05-02T07:14:53.105Z,45
2017-05-02T07:15:33.611Z,45
2017-05-02T07:16:14.130Z,50
2017-05-02T07:16:54.642Z,50
2017-05-02T07:17:35.217Z,50
2017-05-02T07:18:15.732Z,50
2017-05-02T07:18:56.269Z,55
2017-05-02T07:19:36.796Z,60
2017-05-02T07:20:17.301Z,60
2017-05-02T07:20:57.820Z,60
2017-05-02T07:21:38.334Z,65
2017-05-02T07:22:18.864Z,65
2017-05-02T07:22:59.372Z,65
2017-05-02T07:23:39.903Z,65
2017-05-02T07:24:20.403Z,65
2017-05-02T07:25:00.919Z,70
2017-05-02T07:25:41.448Z,70
2017-05-02T07:26:21.975Z,70
2017-05-02T07:27:02.496Z,75
2017-05-02T07:27:43.018Z,75
2017-05-02T07:28:23.529Z,75
2017-05-02T07:29:04.033Z,75
2017-05-02T07:29:44.547Z,75
2017-05-02T07:30:25.042Z,70
2017-05-02T07:31:05.574Z,70
2017-05-02T07:31:46.110Z,60
2017-05-02T07:32:26.651Z,60
2017-05-02T07:33:07.176Z,60
2017-05-02T07:33:47.726Z,55
2017-05-02T07:34:28.264Z,50
2017-05-02T07:35:08.777Z,50
2017-05-02T07:35:49.300Z,45
2017-05-02T07:36:29.806Z,45
2017-05-02T07:37:10.334Z,45
2017-05-02T07:37:50.857Z,45
2017-05-02T07:38:31.381Z,50
2017-05-02T07:39:11.896Z,50
2017-05-02T07:39:52.410Z,50
2017-05-02T07:40:32.932Z,50
2017-05-02T07:41:13.459Z,45
2017-05-02T07:41:53.969Z,45
2017-05-02T07:42:34.495Z,45
2017-05-02T07:43:15.008Z,40
2017-05-02T07:43:55.527Z,40
2017-05-02T07:44:36.053Z,40
2017-05-02T07:45:16.571Z,35
2017-05-02T07:45:57.079Z,35
2017-05-02T07:46:37.620Z,35
2017-05-02T07:47:18.151Z,35
2017-05-02T07:47:58.674Z,40
2017-05-02T07:48:39.185Z,40
2017-05-02T07:49:19.719Z,40
2017-05-02T07:50:00.272Z,40
2017-05-02T07:50:40.794Z,40
2017-05-02T07:51:21.297Z,40
2017-05-02T07:52:01.841Z,40
2017-05-02T07:52:42.356Z,40
2017-05-02T07:53:22.888Z,40
2017-05-02T07:54:03.396Z,40
2017-05-02T07:54:43.909Z,40
2017-05-02T07:55:24.435Z,40
2017-05-02T07:56:04.944Z,40
2017-05-02T07:56:45.505Z,40
2017-05-02T07:57:26.020Z,40
2017-05-02T07:58:06.543Z,40
2017-05-02T07:58:47.055Z,40
2017-05-02T07:59:27.583Z,45
2017-05-02T08:00:08.115Z,45
2017-05-02T08:00:48.626Z,40
2017-05-02T08:01:29.145Z,40
2017-05-02T08:02:09.692Z,40
2017-05-02T08:02:50.211Z,40
2017-05-02T08:03:30.715Z,40
2017-05-02T08:04:11.219Z,40
2017-05-02T08:04:51.749Z,40
2017-05-02T08:05:32.261Z,40
2017-05-02T08:06:12.785Z,45
2017-05-02T08:06:53.316Z,45
2017-05-02T08:07:33.828Z,45
2017-05-02T08:08:14.328Z,45
2017-05-02T08:08:54.871Z,45
2017-05-02T08:09:35.393Z,45
2017-05-02T08:10:15.907Z,45
2017-05-02T08:10:56.433Z,45
2017-05-02T08:11:36.949Z,50
2017-05-02T08:12:17.448Z,50
2017-05-02T08:12:57.972Z,50
2017-05-02T08:13:38.495Z,50
2017-05-02T08:14:19.020Z,45
2017-05-02T08:14:59.547Z,50
2017-05-02T08:15:40.070Z,50
2017-05-02T08:16:20.613Z,55
2017-05-02T08:17:01.114Z,55
2017-05-02T08:17:41.636Z,55
2017-05-02T08:18:22.158Z,55
2017-05-02T08:19:02.648Z,55
2017-05-02T08:19:43.194Z,60
2017-05-02T08:20:23.713Z,60
2017-05-02T08:21:04.225Z,65
2017-05-02T08:21:44.728Z,60
2017-05-02T08:22:25.245Z,60
2017-05-02T08:23:05.763Z,60
2017-05-02T08:23:46.273Z,65
2017-05-02T08:24:26.815Z,65
2017-05-02T08:25:07.337Z,65
2017-05-02T08:25:47.849Z,65
2017-05-02T08:26:28.359Z,65
2017-05-02T08:27:08.878Z,65
2017-05-02T08:27:50.332Z,65
2017-05-02T08:28:30.859Z,65
2017-05-02T08:29:11.371Z,60
2017-05-02T08:29:51.892Z,65
2017-05-02T08:30:32.408Z,65
2017-05-02T08:31:12.929Z,65
2017-05-02T08:31:53.427Z,65
2017-05-02T08:32:33.970Z,65
2017-05-02T08:33:14.492Z,65
2017-05-02T08:33:55.008Z,70
2017-05-02T08:34:35.526Z,70
2017-05-02T08:35:16.050Z,70
2017-05-02T08:35:56.572Z,75
2017-05-02T08:36:37.079Z,75
2017-05-02T08:37:17.605Z,75
2017-05-02T08:37:58.130Z,75
2017-05-02T08:38:38.653Z,70
2017-05-02T08:39:19.166Z,70
2017-05-02T08:39:59.740Z,70
2017-05-02T08:40:40.275Z,70
2017-05-02T08:41:20.796Z,75
2017-05-02T08:42:01.313Z,80
2017-05-02T08:42:41.841Z,80
2017-05-02T08:43:22.374Z,75
2017-05-02T08:44:02.902Z,75
2017-05-02T08:44:43.442Z,75
2017-05-02T08:45:23.971Z,75
2017-05-02T08:46:04.463Z,80
2017-05-02T08:46:44.985Z,85
2017-05-02T08:47:25.516Z,85
2017-05-02T08:48:06.035Z,80
2017-05-02T08:48:46.571Z,85
2017-05-02T08:49:27.094Z,90
2017-05-02T08:50:07.626Z,85
2017-05-02T08:50:48.155Z,85
2017-05-02T08:51:28.669Z,90
2017-05-02T08:52:09.203Z,90
2017-05-02T08:52:49.728Z,80
2017-05-02T08:53:30.232Z,75
2017-05-02T08:54:10.799Z,70
2017-05-02T08:54:51.323Z,65
2017-05-02T08:55:31.857Z,65
2017-05-02T08:56:12.362Z,70
2017-05-02T08:56:52.886Z,75
2017-05-02T08:57:33.420Z,80
2017-05-02T08:58:13.926Z,70
2017-05-02T08:58:54.438Z,70
2017-05-02T08:59:34.962Z,65
2017-05-02T09:00:15.474Z,65
2017-05-02T09:00:55.986Z,65
2017-05-02T09:01:36.507Z,60
2017-05-02T09:02:17.020Z,65
2017-05-02T09:02:57.551Z,60
2017-05-02T09:03:38.049Z,60
2017-05-02T09:04:18.569Z,60
2017-05-02T09:04:59.084Z,65
2017-05-02T09:05:39.605Z,65
2017-05-02T09:06:20.123Z,60
2017-05-02T09:07:00.653Z,55
2017-05-02T09:07:41.181Z,50
2017-05-02T09:08:21.700Z,55
2017-05-02T09:09:02.227Z,55
2017-05-02T09:09:42.744Z,55
2017-05-02T09:10:23.274Z,55
2017-05-02T09:11:03.790Z,50
2017-05-02T09:11:44.314Z,50
2017-05-02T09:12:24.844Z,50
2017-05-02T09:13:06.248Z,50
2017-05-02T09:13:46.762Z,55
2017-05-02T09:14:27.278Z,55
2017-05-02T09:15:07.787Z,50
2017-05-02T09:15:48.292Z,45
2017-05-02T09:16:28.820Z,45
2017-05-02T09:17:09.332Z,50
2017-05-02T09:17:49.844Z,55
2017-05-02T09:18:30.350Z,65
2017-05-02T09:19:10.859Z,65
2017-05-02T09:19:51.398Z,60
2017-05-02T09:20:31.923Z,60
2017-05-02T09:21:12.443Z,60
2017-05-02T09:21:52.936Z,60
2017-05-02T09:22:33.473Z,65
2017-05-02T09:23:13.983Z,65
2017-05-02T09:23:54.485Z,65
2017-05-02T09:24:35.007Z,65
2017-05-02T09:25:15.504Z,65
2017-05-02T09:25:56.022Z,65
2017-05-02T09:26:36.544Z,75
2017-05-02T09:27:17.057Z,80
2017-05-02T09:27:57.571Z,85
2017-05-02T09:28:38.094Z,80
2017-05-02T09:29:18.608Z,80
2017-05-02T09:29:59.096Z,80
2017-05-02T09:30:39.590Z,90
2017-05-02T09:31:20.097Z,90
2017-05-02T09:32:00.647Z,105
2017-05-02T09:32:41.161Z,105
2017-05-02T09:33:21.680Z,100
2017-05-02T09:34:02.193Z,100
2017-05-02T09:34:42.696Z,105
2017-05-02T09:35:24.851Z,100
2017-05-02T09:36:05.366Z,90
2017-05-02T09:36:45.878Z,105
2017-05-02T09:37:26.413Z,95
2017-05-02T09:38:06.939Z,105
2017-05-02T09:38:47.458Z,110
2017-05-02T09:39:27.986Z,100
2017-05-02T09:40:08.515Z,100
2017-05-02T09:40:49.025Z,110
2017-05-02T09:41:29.538Z,120
2017-05-02T09:42:10.061Z,110
2017-05-02T09:42:50.589Z,120
2017-05-02T09:43:31.107Z,115
2017-05-02T09:44:11.624Z,110
2017-05-02T09:44:52.148Z,105
2017-05-02T09:45:32.662Z,100
2017-05-02T09:46:13.173Z,95
2017-05-02T09:46:53.686Z,95